createdAt,value
2018-07-05T00:01:22.650Z,4.53
2018-07-05T00:04:02.687Z,4.30
2018-07-05T00:06:43.226Z,6.37
2018-07-05T00:09:22.812Z,5.73
2018-07-05T00:12:02.528Z,5.00
2018-07-05T00:14:42.022Z,5.10
2018-07-05T00:17:21.514Z,5.10
2018-07-05T00:20:01.138Z,6.20
2018-07-05T00:22:40.974Z,5.30
2018-07-05T00:25:20.624Z,5.30
2018-07-05T00:28:00.378Z,5.17
2018-07-05T00:30:40.106Z,5.33
2018-07-05T00:33:19.824Z,5.40
2018-07-05T00:35:59.391Z,4.83
2018-07-05T00:38:38.982Z,5.40
2018-07-05T00:41:18.748Z,4.70
2018-07-05T00:43:58.456Z,4.70
2018-07-05T00:46:38.050Z,4.73
2018-07-05T00:49:17.626Z,5.20
2018-07-05T00:51:57.080Z,6.40
2018-07-05T00:54:36.635Z,4.93
2018-07-05T00:57:16.254Z,6.03
2018-07-05T00:59:56.024Z,5.70
2018-07-05T01:02:35.806Z,5.27
2018-07-05T01:05:15.422Z,5.50
2018-07-05T01:07:54.952Z,5.73
2018-07-05T01:10:34.713Z,6.33
2018-07-05T01:13:14.498Z,4.97
2018-07-05T01:15:54.096Z,5.67
2018-07-05T01:18:33.943Z,6.17
2018-07-05T01:21:13.626Z,5.63
2018-07-05T01:23:53.359Z,5.30
2018-07-05T01:26:33.182Z,5.17
2018-07-05T01:29:12.822Z,5.53
2018-07-05T01:31:52.397Z,6.07
2018-07-05T01:34:32.014Z,5.20
2018-07-05T01:37:11.690Z,5.33
2018-07-05T01:39:51.147Z,5.80
2018-07-05T01:42:24.820Z,5.73
2018-07-05T01:45:04.380Z,5.60
2018-07-05T01:47:44.220Z,5.70
2018-07-05T01:50:23.978Z,4.93
2018-07-05T01:53:03.676Z,5.50
2018-07-05T01:55:43.380Z,5.60
2018-07-05T01:58:23.092Z,5.20
2018-07-05T02:00:56.740Z,5.37
2018-07-05T02:03:36.342Z,5.30
2018-07-05T02:06:15.818Z,4.80
2018-07-05T02:08:55.402Z,5.00
2018-07-05T02:11:35.106Z,4.43
2018-07-05T02:14:14.849Z,5.03
2018-07-05T02:16:54.663Z,4.90
2018-07-05T02:19:34.401Z,4.50
2018-07-05T02:22:14.114Z,5.00
2018-07-05T02:24:53.877Z,5.20
2018-07-05T02:27:33.759Z,5.00
2018-07-05T02:30:13.340Z,5.00
2018-07-05T02:32:47.039Z,5.17
2018-07-05T02:35:20.869Z,5.00
2018-07-05T02:38:05.983Z,5.10
2018-07-05T02:40:45.528Z,4.87
2018-07-05T02:43:25.318Z,7.40
2018-07-05T02:46:05.662Z,4.60
2018-07-05T02:48:45.390Z,5.03
2018-07-05T02:51:25.253Z,4.70
2018-07-05T02:54:04.882Z,4.87
2018-07-05T02:56:44.536Z,5.10
2018-07-05T02:59:24.362Z,5.37
2018-07-05T03:01:58.086Z,4.93
2018-07-05T03:04:37.787Z,5.40
2018-07-05T03:07:17.473Z,4.97
2018-07-05T03:09:57.088Z,6.30
2018-07-05T03:12:37.618Z,5.10
2018-07-05T03:15:17.226Z,4.53
2018-07-05T03:17:57.013Z,5.30
2018-07-05T03:20:37.020Z,5.07
2018-07-05T03:23:16.861Z,6.77
2018-07-05T03:25:56.456Z,4.67
2018-07-05T03:28:36.148Z,5.10
2018-07-05T03:31:16.678Z,5.70
2018-07-05T03:33:56.741Z,4.97
2018-07-05T03:36:36.682Z,4.50
2018-07-05T03:39:16.324Z,4.80
2018-07-05T03:41:55.960Z,4.87
2018-07-05T03:44:35.714Z,5.10
2018-07-05T03:47:15.508Z,4.40
2018-07-05T03:49:55.060Z,4.73
2018-07-05T03:52:34.701Z,3.90
2018-07-05T03:55:14.264Z,5.57
2018-07-05T03:57:53.856Z,5.90
2018-07-05T04:00:33.478Z,4.43
2018-07-05T04:03:13.048Z,4.77
2018-07-05T04:05:52.748Z,4.33
2018-07-05T04:08:32.402Z,4.90
2018-07-05T04:11:12.260Z,3.87
2018-07-05T04:13:52.090Z,5.10
2018-07-05T04:16:31.694Z,4.90
2018-07-05T04:19:11.166Z,5.20
2018-07-05T04:21:51.313Z,4.40
2018-07-05T04:24:31.000Z,4.40
2018-07-05T04:27:04.764Z,5.30
2018-07-05T04:29:45.190Z,4.53
2018-07-05T04:32:24.989Z,3.90
2018-07-05T04:35:05.380Z,4.03
2018-07-05T04:37:46.899Z,4.03
2018-07-05T04:40:26.634Z,4.43
2018-07-05T04:43:06.252Z,4.53
2018-07-05T04:45:45.986Z,4.50
2018-07-05T04:48:25.689Z,4.40
2018-07-05T04:51:06.176Z,4.33
2018-07-05T04:53:45.710Z,4.70
2018-07-05T04:56:25.679Z,4.80
2018-07-05T04:59:05.560Z,5.00
2018-07-05T05:01:45.892Z,4.30
2018-07-05T05:04:25.699Z,5.40
2018-07-05T05:07:06.564Z,5.10
2018-07-05T05:09:46.334Z,4.70
2018-07-05T05:12:25.955Z,5.70
2018-07-05T05:15:05.559Z,4.77
2018-07-05T05:17:45.206Z,4.70
2018-07-05T05:20:24.941Z,4.70
2018-07-05T05:23:04.536Z,5.50
2018-07-05T05:25:43.951Z,5.00
2018-07-05T05:28:23.485Z,4.43
2018-07-05T05:31:03.189Z,4.80
2018-07-05T05:33:42.851Z,6.57
2018-07-05T05:36:22.606Z,5.40
2018-07-05T05:39:02.368Z,5.03
2018-07-05T05:41:42.027Z,4.80
2018-07-05T05:44:21.674Z,4.37
2018-07-05T05:47:01.321Z,5.00
2018-07-05T05:49:41.222Z,4.97
2018-07-05T05:52:21.009Z,4.80
2018-07-05T05:55:00.577Z,5.03
2018-07-05T05:57:40.255Z,4.43
2018-07-05T06:00:20.047Z,3.97
2018-07-05T06:02:59.475Z,4.47
2018-07-05T06:05:39.127Z,5.00
2018-07-05T06:08:18.680Z,4.40
2018-07-05T06:10:59.954Z,4.43
2018-07-05T06:13:39.625Z,4.73
2018-07-05T06:16:19.155Z,4.60
2018-07-05T06:18:58.875Z,4.50
2018-07-05T06:21:39.111Z,4.60
2018-07-05T06:24:18.865Z,4.87
2018-07-05T06:26:58.520Z,4.50
2018-07-05T06:29:32.047Z,4.80
2018-07-05T06:32:11.845Z,5.03
2018-07-05T06:34:51.839Z,5.00
2018-07-05T06:37:31.505Z,3.87
2018-07-05T06:40:11.251Z,4.33
2018-07-05T06:42:51.134Z,5.10
2018-07-05T06:45:30.710Z,4.17
2018-07-05T06:48:10.596Z,4.00
2018-07-05T06:50:50.294Z,4.30
2018-07-05T06:53:29.859Z,3.80
2018-07-05T06:56:09.669Z,4.03
2018-07-05T06:58:49.249Z,3.73
2018-07-05T07:01:28.894Z,4.07
2018-07-05T07:04:08.585Z,3.60
2018-07-05T07:06:48.748Z,3.80
2018-07-05T07:09:22.445Z,3.53
2018-07-05T07:12:02.146Z,3.87
2018-07-05T07:14:41.674Z,3.90
2018-07-05T07:17:21.478Z,4.00
2018-07-05T07:20:01.144Z,3.53
2018-07-05T07:22:40.906Z,3.50
2018-07-05T07:25:20.720Z,3.77
2018-07-05T07:28:00.534Z,3.50
2018-07-05T07:30:40.348Z,3.87
2018-07-05T07:33:20.110Z,3.60
2018-07-05T07:36:00.045Z,4.00
2018-07-05T07:38:39.725Z,3.60
2018-07-05T07:41:19.358Z,3.60
2018-07-05T07:43:46.584Z,3.30
2018-07-05T07:46:13.794Z,2.73
2018-07-05T07:48:41.003Z,3.50
2018-07-05T07:51:08.224Z,3.10
2018-07-05T07:53:35.392Z,3.17
2018-07-05T07:56:02.694Z,3.00
2018-07-05T07:58:29.928Z,2.60
2018-07-05T08:00:58.170Z,3.23
2018-07-05T08:03:25.451Z,2.70
2018-07-05T08:05:52.638Z,3.60
2018-07-05T08:08:20.117Z,3.03
2018-07-05T08:10:47.474Z,3.43
2018-07-05T08:13:14.723Z,3.23
2018-07-05T08:15:41.950Z,3.73
2018-07-05T08:18:09.420Z,3.80
2018-07-05T08:20:36.639Z,2.80
2018-07-05T08:23:03.862Z,3.37
2018-07-05T08:25:31.047Z,3.60
2018-07-05T08:27:58.284Z,4.03
2018-07-05T08:30:25.488Z,2.80
2018-07-05T08:32:52.968Z,3.07
2018-07-05T08:35:20.181Z,2.87
2018-07-05T08:37:47.421Z,3.10
2018-07-05T08:40:14.630Z,2.90
2018-07-05T08:42:42.157Z,3.30
2018-07-05T08:45:09.417Z,3.27
2018-07-05T08:47:36.621Z,3.47
2018-07-05T08:50:03.882Z,2.83
2018-07-05T08:52:31.102Z,3.37
2018-07-05T08:54:58.315Z,3.20
2018-07-05T08:57:25.527Z,2.97
2018-07-05T09:02:26.482Z,3.13
2018-07-05T09:04:53.943Z,3.33
2018-07-05T09:07:21.273Z,3.07
2018-07-05T09:09:48.559Z,2.60
2018-07-05T09:12:15.820Z,2.57
2018-07-05T09:14:43.009Z,4.27
2018-07-05T09:17:11.538Z,3.30
2018-07-05T09:19:38.809Z,3.10
2018-07-05T09:22:06.067Z,2.70
2018-07-05T09:24:33.327Z,3.10
2018-07-05T09:27:00.523Z,3.20
2018-07-05T09:29:27.747Z,2.60
2018-07-05T09:31:54.960Z,2.70
2018-07-05T09:34:22.203Z,2.70
2018-07-05T09:36:49.419Z,2.50
2018-07-05T09:39:16.799Z,2.80
2018-07-05T09:41:44.069Z,3.17
2018-07-05T09:44:11.455Z,2.70
2018-07-05T09:46:38.674Z,3.17
2018-07-05T09:49:06.190Z,2.90
2018-07-05T09:51:33.483Z,3.20
2018-07-05T09:54:00.722Z,3.10
2018-07-05T09:56:27.938Z,3.10
2018-07-05T09:58:55.165Z,3.00
2018-07-05T10:01:22.669Z,2.87
2018-07-05T10:03:49.971Z,3.00
2018-07-05T10:06:17.433Z,3.10
2018-07-05T10:08:44.716Z,3.10
2018-07-05T10:11:11.945Z,2.67
2018-07-05T10:13:39.330Z,2.97
2018-07-05T10:16:06.444Z,3.20
2018-07-05T10:18:33.720Z,2.97
2018-07-05T10:21:00.924Z,2.87
2018-07-05T10:23:29.561Z,2.90
2018-07-05T10:25:56.932Z,3.03
2018-07-05T10:28:24.188Z,2.33
2018-07-05T10:31:04.000Z,3.00
2018-07-05T10:33:43.653Z,3.40
2018-07-05T10:36:10.880Z,2.80
2018-07-05T10:38:38.131Z,2.60
2018-07-05T10:41:17.975Z,3.50
2018-07-05T10:43:57.580Z,3.57
2018-07-05T10:46:37.394Z,2.33
2018-07-05T10:49:17.212Z,2.80
2018-07-05T10:51:57.043Z,3.30
2018-07-05T10:54:36.819Z,2.53
2018-07-05T10:57:16.425Z,2.80
2018-07-05T10:59:56.266Z,2.70
2018-07-05T11:02:35.896Z,2.83
2018-07-05T11:05:15.804Z,2.80
2018-07-05T11:07:55.456Z,3.00
2018-07-05T11:10:35.123Z,2.97
2018-07-05T11:13:14.938Z,2.60
2018-07-05T11:15:54.618Z,2.60
2018-07-05T11:18:34.764Z,3.10
2018-07-05T11:21:14.569Z,3.43
2018-07-05T11:23:54.376Z,3.20
2018-07-05T11:26:34.055Z,3.07
2018-07-05T11:29:13.875Z,2.70
2018-07-05T11:31:53.654Z,2.53
2018-07-05T11:34:33.476Z,3.07
2018-07-05T11:37:12.909Z,3.53
2018-07-05T11:39:52.601Z,2.87
2018-07-05T11:42:32.342Z,3.17
2018-07-05T11:45:11.935Z,3.00
2018-07-05T11:47:51.703Z,2.60
2018-07-05T11:50:31.375Z,3.67
2018-07-05T11:53:10.960Z,2.80
2018-07-05T11:55:50.605Z,3.30
2018-07-05T11:58:30.280Z,3.30
2018-07-05T12:01:09.928Z,3.00
2018-07-05T12:03:49.570Z,2.90
2018-07-05T12:06:30.437Z,3.77
2018-07-05T12:09:10.487Z,4.13
2018-07-05T12:11:50.644Z,3.80
2018-07-05T12:14:30.447Z,3.10
2018-07-05T12:17:10.024Z,2.80
2018-07-05T12:19:49.629Z,3.00
2018-07-05T12:22:29.247Z,3.13
2018-07-05T12:25:11.171Z,2.80
2018-07-05T12:27:51.835Z,3.97
2018-07-05T12:30:31.494Z,3.27
2018-07-05T12:33:11.133Z,2.90
2018-07-05T12:35:50.859Z,3.10
2018-07-05T12:38:31.061Z,2.90
2018-07-05T12:41:10.931Z,3.50
2018-07-05T12:43:50.471Z,3.23
2018-07-05T12:46:30.351Z,3.37
2018-07-05T12:49:11.355Z,3.57
2018-07-05T12:51:51.312Z,3.20
2018-07-05T12:54:31.115Z,3.50
2018-07-05T12:57:10.717Z,3.33
2018-07-05T12:59:50.397Z,3.37
2018-07-05T13:02:31.313Z,3.40
2018-07-05T13:05:11.029Z,3.00
2018-07-05T13:07:50.889Z,3.10
2018-07-05T13:10:30.629Z,3.30
2018-07-05T13:13:10.141Z,3.20
2018-07-05T13:15:49.755Z,3.27
2018-07-05T13:18:29.238Z,2.80
2018-07-05T13:21:08.841Z,3.40
2018-07-05T13:23:48.605Z,3.40
2018-07-05T13:26:28.350Z,3.30
2018-07-05T13:29:07.862Z,3.30
2018-07-05T13:31:47.366Z,3.83
2018-07-05T13:34:27.110Z,3.33
2018-07-05T13:37:08.705Z,3.47
2018-07-05T13:39:49.213Z,3.93
2018-07-05T13:42:28.936Z,4.57
2018-07-05T13:45:08.736Z,4.00
2018-07-05T13:47:48.282Z,3.40
2018-07-05T13:50:27.974Z,3.50
2018-07-05T13:53:07.750Z,4.30
2018-07-05T13:55:47.466Z,3.10
2018-07-05T13:58:27.310Z,3.90
2018-07-05T14:01:06.884Z,3.30
2018-07-05T14:03:47.050Z,3.20
2018-07-05T14:06:26.968Z,3.40
2018-07-05T14:09:08.038Z,4.10
2018-07-05T14:11:47.386Z,3.03
2018-07-05T14:14:27.317Z,3.70
2018-07-05T14:17:06.872Z,3.07
2018-07-05T14:19:40.375Z,3.67
2018-07-05T14:22:20.051Z,3.63
2018-07-05T14:25:00.601Z,3.40
2018-07-05T14:27:40.369Z,3.00
2018-07-05T14:30:20.192Z,4.07
2018-07-05T14:32:59.616Z,3.30
2018-07-05T14:35:39.679Z,3.50
2018-07-05T14:38:19.378Z,3.50
2018-07-05T14:40:59.546Z,3.60
2018-07-05T14:43:41.211Z,2.90
2018-07-05T14:46:20.935Z,3.47
2018-07-05T14:49:00.700Z,3.70
2018-07-05T14:51:34.324Z,3.77
2018-07-05T14:54:13.985Z,3.90
2018-07-05T14:56:53.812Z,3.33
2018-07-05T14:59:33.599Z,3.07
2018-07-05T15:02:13.461Z,3.50
2018-07-05T15:04:54.981Z,3.90
2018-07-05T15:07:34.603Z,3.80
2018-07-05T15:10:14.581Z,3.30
2018-07-05T15:12:55.133Z,3.00
2018-07-05T15:15:34.827Z,3.60
2018-07-05T15:18:14.543Z,3.23
2018-07-05T15:20:54.205Z,3.33
2018-07-05T15:23:33.829Z,3.50
2018-07-05T15:26:13.813Z,3.57
2018-07-05T15:28:53.583Z,3.50
2018-07-05T15:31:33.587Z,3.70
2018-07-05T15:34:13.637Z,3.73
2018-07-05T15:36:53.189Z,2.90
2018-07-05T15:39:32.988Z,3.40
2018-07-05T15:42:12.756Z,3.50
2018-07-05T15:45:56.022Z,3.17
2018-07-05T15:48:36.040Z,3.10
2018-07-05T15:51:15.988Z,3.70
2018-07-05T15:53:55.694Z,3.23
2018-07-05T15:56:35.864Z,3.53
2018-07-05T15:59:15.535Z,4.30
2018-07-05T16:01:55.280Z,2.97
2018-07-05T16:04:35.030Z,3.33
2018-07-05T16:07:14.600Z,3.57
2018-07-05T16:09:54.302Z,3.70
2018-07-05T16:12:33.842Z,3.23
2018-07-05T16:15:13.675Z,3.47
2018-07-05T16:17:55.892Z,3.50
2018-07-05T16:20:35.946Z,3.10
2018-07-05T16:23:15.572Z,3.13
2018-07-05T16:25:55.318Z,3.30
2018-07-05T16:28:34.995Z,3.10
2018-07-05T16:31:14.729Z,3.23
2018-07-05T16:33:55.332Z,3.53
2018-07-05T16:36:35.006Z,2.77
2018-07-05T16:39:14.800Z,2.60
2018-07-05T16:41:54.299Z,2.77
2018-07-05T16:44:34.221Z,3.00
2018-07-05T16:47:14.048Z,2.70
2018-07-05T16:49:53.794Z,2.87
2018-07-05T16:52:33.606Z,2.50
2018-07-05T16:55:13.472Z,2.87
2018-07-05T16:57:53.149Z,2.20
2018-07-05T17:00:32.862Z,2.50
2018-07-05T17:03:12.666Z,2.30
2018-07-05T17:05:52.988Z,1.90
2018-07-05T17:08:33.456Z,2.50
2018-07-05T17:11:13.124Z,2.50
2018-07-05T17:13:52.832Z,2.13
2018-07-05T17:16:32.598Z,2.13
2018-07-05T17:19:12.186Z,1.90
2018-07-05T17:21:51.768Z,1.70
2018-07-05T17:24:31.507Z,2.20
2018-07-05T17:27:11.187Z,1.97
2018-07-05T17:29:51.176Z,1.77
2018-07-05T17:32:30.787Z,1.70
2018-07-05T17:35:10.584Z,2.00
2018-07-05T17:37:50.376Z,1.90
2018-07-05T17:40:30.150Z,1.80
2018-07-05T17:43:09.819Z,1.93
2018-07-05T17:45:49.571Z,1.80
2018-07-05T17:48:29.237Z,1.93
2018-07-05T17:51:09.054Z,1.90
2018-07-05T17:53:48.758Z,2.10
2018-07-05T17:56:28.495Z,2.00
2018-07-05T17:59:08.106Z,1.97
2018-07-05T18:01:47.902Z,2.20
2018-07-05T18:04:27.721Z,3.33
2018-07-05T18:07:07.381Z,2.10
2018-07-05T18:09:47.090Z,2.10
2018-07-05T18:12:27.005Z,1.40
2018-07-05T18:15:06.594Z,1.93
2018-07-05T18:17:46.228Z,1.70
2018-07-05T18:20:25.912Z,1.40
2018-07-05T18:23:05.571Z,1.67
2018-07-05T18:25:45.264Z,1.90
2018-07-05T18:28:25.035Z,2.07
2018-07-05T18:31:04.628Z,1.40
2018-07-05T18:33:44.474Z,2.03
2018-07-05T18:36:24.098Z,1.93
2018-07-05T18:39:03.993Z,1.70
2018-07-05T18:41:43.736Z,1.60
2018-07-05T18:44:23.672Z,1.60
2018-07-05T18:47:03.514Z,1.67
2018-07-05T18:49:43.443Z,1.70
2018-07-05T18:52:23.367Z,2.10
2018-07-05T18:55:03.115Z,1.50
2018-07-05T18:57:43.679Z,1.73
2018-07-05T19:00:23.283Z,1.90
2018-07-05T19:03:02.885Z,2.20
2018-07-05T19:05:42.507Z,1.87
2018-07-05T19:08:22.355Z,1.80
2018-07-05T19:11:02.067Z,2.30
2018-07-05T19:13:41.741Z,2.10
2018-07-05T19:16:21.511Z,1.90
2018-07-05T19:19:01.091Z,1.97
2018-07-05T19:21:40.713Z,1.70
2018-07-05T19:24:20.596Z,2.30
2018-07-05T19:27:01.003Z,2.10
2018-07-05T19:29:40.678Z,1.90
2018-07-05T19:32:20.445Z,1.80
2018-07-05T19:34:55.641Z,1.97
2018-07-05T19:37:35.314Z,1.97
2018-07-05T19:40:16.422Z,1.87
2018-07-05T19:42:56.196Z,2.53
2018-07-05T19:45:35.936Z,1.73
2018-07-05T19:48:15.604Z,2.10
2018-07-05T19:50:56.814Z,2.37
2018-07-05T19:53:36.537Z,2.27
2018-07-05T19:56:16.167Z,2.13
2018-07-05T19:58:55.784Z,2.40
2018-07-05T20:01:37.418Z,2.20
2018-07-05T20:04:17.328Z,2.30
2018-07-05T20:06:57.471Z,2.17
2018-07-05T20:09:36.994Z,2.87
2018-07-05T20:12:16.575Z,9.67
2018-07-05T20:14:56.502Z,2.70
2018-07-05T20:17:36.172Z,2.30
2018-07-05T20:20:15.750Z,2.10
2018-07-05T20:22:55.382Z,2.40
2018-07-05T20:25:34.984Z,2.30
2018-07-05T20:28:15.754Z,3.07
2018-07-05T20:30:55.338Z,2.50
2018-07-05T20:33:35.127Z,2.17
2018-07-05T20:36:14.921Z,2.27
2018-07-05T20:38:55.988Z,2.30
2018-07-05T20:41:35.746Z,2.10
2018-07-05T20:44:09.380Z,2.40
2018-07-05T20:46:49.094Z,2.83
2018-07-05T20:49:22.717Z,2.67
2018-07-05T20:51:56.306Z,2.80
2018-07-05T20:54:35.964Z,3.30
2018-07-05T20:57:09.558Z,2.63
2018-07-05T20:59:50.134Z,2.87
2018-07-05T21:02:30.099Z,2.60
2018-07-05T21:05:09.599Z,2.80
2018-07-05T21:07:51.784Z,2.43
2018-07-05T21:10:31.548Z,3.10
2018-07-05T21:13:12.014Z,2.40
2018-07-05T21:15:52.898Z,2.50
2018-07-05T21:18:33.661Z,2.90
2018-07-05T21:21:13.327Z,2.17
2018-07-05T21:23:54.148Z,2.20
2018-07-05T21:26:33.729Z,2.30
2018-07-05T21:29:13.544Z,3.20
2018-07-05T21:31:53.455Z,2.67
2018-07-05T21:34:33.110Z,2.53
2018-07-05T21:37:06.790Z,3.33
2018-07-05T21:39:46.606Z,2.77
2018-07-05T21:42:27.200Z,3.10
2018-07-05T21:45:06.666Z,3.97
2018-07-05T21:47:46.300Z,2.37
2018-07-05T21:50:26.064Z,2.73
2018-07-05T21:53:05.750Z,3.07
2018-07-05T21:55:45.307Z,3.00
2018-07-05T21:58:25.198Z,3.83
2018-07-05T22:01:04.970Z,2.93
2018-07-05T22:03:44.749Z,2.63
2018-07-05T22:06:24.432Z,3.20
2018-07-05T22:09:04.777Z,2.97
2018-07-05T22:11:44.395Z,2.90
2018-07-05T22:14:24.285Z,2.70
2018-07-05T22:17:09.503Z,2.90
2018-07-05T22:19:54.535Z,2.63
2018-07-05T22:22:39.778Z,2.77
2018-07-05T22:25:24.969Z,2.80
2018-07-05T22:28:10.155Z,3.03
2018-07-05T22:30:55.623Z,2.40
2018-07-05T22:33:35.408Z,2.80
2018-07-05T22:36:15.036Z,2.77
2018-07-05T22:38:55.270Z,2.93
2018-07-05T22:41:35.188Z,2.63
2018-07-05T22:44:14.773Z,2.90
2018-07-05T22:46:54.418Z,3.00
2018-07-05T22:49:34.187Z,2.43
2018-07-05T22:52:13.891Z,3.20
2018-07-05T22:54:53.747Z,2.20
2018-07-05T22:57:33.544Z,3.10
2018-07-05T23:00:13.324Z,2.10
2018-07-05T23:02:52.935Z,2.53
2018-07-05T23:05:32.934Z,3.03
2018-07-05T23:08:12.736Z,2.60
2018-07-05T23:10:52.557Z,2.70
2018-07-05T23:13:32.206Z,2.80
2018-07-05T23:16:06.627Z,2.70
2018-07-05T23:18:46.301Z,2.30
2018-07-05T23:21:26.076Z,2.60
2018-07-05T23:24:05.777Z,2.90
2018-07-05T23:26:46.041Z,2.90
2018-07-05T23:29:25.769Z,2.20
2018-07-05T23:32:05.464Z,2.43
2018-07-05T23:34:45.168Z,2.50
2018-07-05T23:37:24.915Z,2.93
2018-07-05T23:40:04.776Z,2.20
2018-07-05T23:42:44.401Z,3.10
2018-07-05T23:45:24.341Z,2.33
2018-07-05T23:48:03.923Z,2.57
2018-07-05T23:50:43.506Z,2.87
2018-07-05T23:53:23.820Z,2.60
2018-07-05T23:56:03.582Z,2.70
2018-07-05T23:58:43.229Z,2.57
